Biloxi, MS (39530)

3:19 AM CST on February 14, 2016 (GMT -0600)
Taylor Oaks Subdivision | | Change Station
CLOSE
Current Station
Personal Weather Station
Location: Biloxi, MS
Elevation: 92 ft
Nearby Weather Stations

Elev 92 ft 30.44 °N, 88.95 °W | Updated 12 minutes ago

Clear
Clear
36.9 °F
Feels Like 37 °F
N
1.7
Wind Variable Wind from NNE

Today
High -- | Low -- °F
--% Chance of Precip.
Yesterday
High -- | Low -- °F
Precip. -- in
Pressure 30.27 in
Visibility 10.0 miles
Clouds Clear
Windchill 37 °F
Dew Point 27 °F
Humidity 66%
Rainfall 0.00 in
Snow Depth Not available.
6:37 AM 5:42 PM
Waxing Crescent, 39% visible
METAR KBIX 140858Z AUTO 10006KT 10SM CLR 06/M04 A3026 RMK AO2 SLP250 T00591042 57019
Pressure 30.27 in
Visibility 10.0 miles
Clouds Clear
Windchill 37 °F
Dew Point 27 °F
Humidity 66%
Rainfall 0.00 in
Snow Depth Not available.
6:37 AM 5:42 PM
Waxing Crescent, 39% visible
METAR KBIX 140858Z AUTO 10006KT 10SM CLR 06/M04 A3026 RMK AO2 SLP250 T00591042 57019

10-Day Weather Forecast

Almanac

Astronomy

Feb. 14, 2016 Rise Set
Actual Time
Civil Twilight
Nautical Twilight
Astronomical Twilight
Moon
Length of Visible Light
Length of Day
Tomorrow will be .
, % of the Moon is Illuminated

Today's Extremes

State Highs State Lows

Community

WunderPhotos

Upload Photos

1,892,763 photos uploaded!

WunderBlog® & News

Nearby

Air Quality

  Air Quality AQ Index Pollutant
Not available.

Snow Depth

Station Depth Elevation

Earthquake Activity

City Distance Mag. Time & Date
Minimum magnitude displayed is 2.5.

Coastal Water Temperatures

Place Temperature

Stations

Nearby Weather Stations

Station Location Temp. Windchill Dew Point Humidity Wind Precip. Elev Updated Type
                   

Watches & Warnings

There are currently no watches in effect.